Latest Coastal Weather Observations for Strahan

IDT60701

Issued at 4:12 am EDT Sunday 25 October 2020 (issued every 10 minutes, with the page automatically refreshed every 10 minutes)

About coastal observations | Map of coastal stations | Coastal observations for TAS | Marine services | Other Formats
Station Details ID: 097072 Name: STRAHAN AERODROME Lat: -42.16 Lon: 145.29 Height: 21.0 m
Data from the previous 72 hours. | See also: Recent months at Strahan
Date/Time
EDT
Wind Sea
Height
m
Swell Vis
km
Cloud Weather Temp
°C
Press
MSL
hPa
Rain since
9am
mm
Dir  Spd
kts
Gust
kts
Height
m
Period
s
Dir
25/04:00am SE 7 8 - - - - 10 Clear - 2.8 1018.8 1.6
25/03:30am SE 8 11 - - - - 10 Partly cloudy - 3.4 1018.4 1.6
25/03:00am ESE 8 9 - - - - 10 Mostly clear Recent precip. 3.4 1017.9 1.6
25/02:30am SE 11 14 - - - - 10 Partly cloudy - 4.8 1017.5 1.6
25/02:00am ESE 8 10 - - - - 10 - - 3.9 1017.1 1.6
25/01:30am ESE 9 14 - - - - 10 - - 4.1 1017.0 1.6
25/01:00am SSE 8 13 - - - - 10 - - 5.0 1016.5 1.6
25/12:30am ESE 8 12 - - - - 10 Partly cloudy - 5.4 1016.0 1.6
25/12:00am SE 12 17 - - - - 10 Cloudy - 6.5 1015.7 1.6
 
Date/Time
EDT
Wind Sea
Height
m
Swell Vis
km
Cloud Weather Temp
°C
Press
MSL
hPa
Rain since
9am
mm
Dir  Spd
kts
Gust
kts
Height
m
Period
s
Dir
24/11:30pm SSE 15 23 - - - - 10 - - 6.9 1015.5 1.6
24/11:29pm SSE 15 23 - - - - 10 Partly cloudy - 6.9 1015.4 1.6
24/11:00pm S 9 13 - - - - 10 Partly cloudy - 6.8 1015.0 1.6
24/10:30pm S 11 17 - - - - 10 Partly cloudy - 7.0 1014.6 1.6
24/10:00pm S 12 18 - - - - 10 Partly cloudy - 6.4 1014.4 1.6
24/09:30pm S 15 22 - - - - 10 Partly cloudy - 6.6 1013.7 1.6
24/09:00pm SSW 20 27 - - - - 10 Cloudy Showers 6.8 1012.9 1.6
24/08:50pm SSW 17 29 - - - - 10 Partly cloudy - 7.7 1012.7 1.2
24/08:30pm SSW 14 19 - - - - 10 Partly cloudy - 7.9 1011.9 1.2
24/08:00pm SSW 12 18 - - - - 10 Partly cloudy - 8.0 1011.3 1.2
24/07:30pm SSW 12 20 - - - - 10 Partly cloudy - 8.2 1010.4 1.2
24/07:00pm SSW 15 22 - - - - 10 Partly cloudy - 8.3 1009.8 1.2
24/06:30pm S 14 20 - - - - 10 Partly cloudy - 9.0 1009.3 1.2
24/06:00pm SSW 10 19 - - - - 10 Cloudy Showers 8.4 1008.8 1.0
24/05:30pm SW 13 18 - - - - 10 Partly cloudy - 9.5 1008.3 0.8
24/05:00pm SW 6 10 - - - - 10 Partly cloudy - 9.1 1007.9 0.8
24/04:48pm WSW 15 25 - - - - 5 Partly cloudy - 8.2 1008.1 0.6
24/04:47pm WSW 16 25 - - - - 5 Partly cloudy - 8.3 1008.0 0.6
24/04:30pm WSW 16 28 - - - - 10 Partly cloudy - 10.2 1007.7 0.0
24/04:28pm WSW 15 28 - - - - 10 Partly cloudy - 10.7 1007.7 0.0
24/04:00pm WSW 13 17 - - - - 10 Partly cloudy - 12.4 1007.4 0.0
24/03:30pm SW 15 22 - - - - 6 Partly cloudy - 10.4 1007.5 0.0
24/03:00pm W 13 17 - - - - 10 Mostly cloudy - 12.9 1007.3 0.0
24/02:30pm W 15 21 - - - - 10 Partly cloudy - 13.7 1007.4 0.0
24/02:00pm WSW 13 18 - - - - 10 Partly cloudy - 13.1 1007.1 0.0
24/01:30pm WSW 15 19 - - - - 10 Partly cloudy - 13.3 1006.9 0.0
24/01:00pm SW 13 21 - - - - 10 Partly cloudy - 13.0 1006.7 0.0
24/12:30pm SW 17 24 - - - - 10 Partly cloudy - 10.9 1006.8 0.0
24/12:00pm WSW 14 19 - - - - 10 Partly cloudy - 13.1 1006.5 0.0
24/11:30am SW 16 21 - - - - 10 - - 12.8 1006.3 0.0
24/11:00am SW 15 21 - - - - 10 Partly cloudy - 13.1 1006.1 0.0
24/10:30am WSW 14 18 - - - - 10 Partly cloudy - 11.9 1006.0 0.0
24/10:00am SW 13 18 - - - - 10 Partly cloudy - 11.3 1005.9 0.0
24/09:30am SW 13 19 - - - - 10 Partly cloudy - 10.8 1005.9 0.0
24/09:00am SW 12 15 - - - - 10 Cloudy Showers 9.9 1005.7 0.0
24/08:30am SSW 8 11 - - - - 10 Partly cloudy - 11.2 1005.4 0.0
24/08:00am SW 11 15 - - - - 10 Partly cloudy - 10.4 1005.2 0.0
24/07:30am SW 9 13 - - - - 10 Partly cloudy - 10.0 1005.0 0.0
24/07:00am S 4 6 - - - - 10 Partly cloudy - 9.3 1004.6 0.0
24/06:30am SSW 3 6 - - - - 10 Partly cloudy - 8.1 1004.6 0.0
24/06:00am CALM 0 0 - - - - 10 Mostly cloudy - 8.1 1004.5 0.0
24/05:30am SSW 2 5 - - - - 10 Partly cloudy - 8.5 1004.3 0.0
24/05:00am SW 5 6 - - - - 10 Partly cloudy - 8.4 1004.2 0.0
24/04:30am SSW 5 7 - - - - 10 Partly cloudy - 9.8 1004.4 0.0
24/04:10am SW 7 9 - - - - 10 Partly cloudy - 10.2 1004.3 0.0
24/04:00am SSW 5 7 - - - - 10 Cloudy - 10.2 1004.4 0.0
24/03:34am NNE 3 5 - - - - 10 Partly cloudy - 9.5 1004.2 0.0
24/03:30am NE 2 4 - - - - 10 Partly cloudy - 9.9 1004.2 0.0
24/03:00am CALM 0 0 - - - - 10 Mostly cloudy - 9.4 1004.3 0.0
24/02:30am NE 2 4 - - - - 10 Partly cloudy - 9.9 1004.5 0.0
24/02:00am CALM 0 0 - - - - 10 Cloudy - 10.5 1004.8 0.0
24/01:30am SW 3 4 - - - - 10 Partly cloudy - 10.7 1005.1 0.0
24/01:00am WSW 5 7 - - - - 10 Partly cloudy - 11.1 1005.4 0.0
24/12:30am WSW 5 7 - - - - 10 Partly cloudy - 11.4 1005.5 0.0
24/12:17am WSW 6 8 - - - - 10 Partly cloudy - 11.6 1005.7 0.0
24/12:00am WSW 6 8 - - - - 10 Cloudy Drizzle 11.8 1005.8 0.0
 
Date/Time
EDT
Wind Sea
Height
m
Swell Vis
km
Cloud Weather Temp
°C
Press
MSL
hPa
Rain since
9am
mm
Dir  Spd
kts
Gust
kts
Height
m
Period
s
Dir
23/11:34pm WNW 5 7 - - - - 10 Partly cloudy - 11.8 1005.9 0.0
23/11:30pm WNW 5 7 - - - - 10 Partly cloudy - 11.9 1005.9 0.0
23/11:00pm WNW 5 6 - - - - 10 Partly cloudy - 11.9 1006.1 0.0
23/10:30pm WNW 5 7 - - - - 10 Partly cloudy - 12.1 1006.2 0.0
23/10:00pm W 5 6 - - - - 10 Partly cloudy - 12.1 1006.4 0.0
23/09:30pm WNW 5 7 - - - - 10 Partly cloudy - 12.2 1006.4 0.0
23/09:00pm WNW 3 5 - - - - 10 Cloudy - 12.2 1006.4 0.0
23/08:47pm W 2 4 - - - - 10 Partly cloudy - 12.3 1006.2 0.0
23/08:35pm W 3 5 - - - - 10 Partly cloudy - 12.3 1006.3 0.0
23/08:30pm W 4 5 - - - - 10 Partly cloudy - 12.3 1006.3 0.0
23/08:28pm W 4 5 - - - - 10 Partly cloudy - 12.3 1006.3 0.0
23/08:11pm WNW 3 5 - - - - 10 Partly cloudy - 12.3 1006.4 0.0
23/08:00pm WNW 4 6 - - - - 10 Partly cloudy - 12.4 1006.2 0.0
23/07:30pm W 5 7 - - - - 10 Partly cloudy - 12.6 1006.2 0.0
23/07:00pm W 7 8 - - - - 10 Partly cloudy - 12.8 1006.0 0.0
23/06:55pm W 7 8 - - - - 10 Partly cloudy - 12.9 1006.1 0.0
23/06:30pm WNW 8 10 - - - - 10 Partly cloudy - 13.2 1006.0 0.0
23/06:00pm W 6 9 - - - - 10 Cloudy Showers 13.1 1006.2 0.0
23/05:36pm NW 7 11 - - - - 10 Partly cloudy - 13.3 1006.2 0.0
23/05:30pm NW 7 10 - - - - 10 Partly cloudy - 13.5 1006.2 0.0
23/05:00pm WNW 7 10 - - - - 10 Cloudy - 13.8 1006.2 0.0
23/04:30pm NW 7 9 - - - - 10 Cloudy - 13.8 1006.1 0.0
23/04:00pm WNW 8 10 - - - - 10 Partly cloudy - 14.2 1006.3 0.0
23/03:30pm NW 8 11 - - - - 10 Partly cloudy - 15.0 1006.6 0.0
23/03:00pm NW 5 8 - - - - 10 Cloudy - 15.4 1007.0 0.0
23/02:30pm W 6 9 - - - - 10 Partly cloudy - 15.3 1007.4 0.0
23/02:00pm WNW 5 7 - - - - 10 Partly cloudy - 14.2 1008.0 0.0
23/01:30pm WNW 7 10 - - - - 10 Partly cloudy - 13.6 1008.4 0.0
23/01:00pm WNW 6 8 - - - - 10 Partly cloudy - 13.6 1008.7 0.0
23/12:30pm NW 4 6 - - - - 10 Partly cloudy - 13.8 1008.8 0.0
23/12:00pm WNW 3 6 - - - - 10 Cloudy - 13.8 1009.3 0.0
23/11:30am SW 2 6 - - - - 10 Partly cloudy - 14.3 1009.5 0.0
23/11:00am SSW 2 5 - - - - 10 Cloudy - 13.9 1009.6 0.0
23/10:30am S 3 6 - - - - 10 Cloudy - 13.5 1009.6 0.0
23/10:00am ENE 3 4 - - - - 10 Partly cloudy - 13.3 1009.7 0.0
23/09:30am ESE 3 4 - - - - 10 - - 12.8 1009.8 0.0
23/09:00am ENE 3 4 - - - - 10 Cloudy - 11.9 1010.3 0.0
23/08:30am ENE 4 6 - - - - 10 Partly cloudy - 11.0 1010.5 0.0
23/08:00am CALM 0 0 - - - - 10 Partly cloudy - 10.2 1010.8 0.0
23/07:30am NNE 4 5 - - - - 10 Partly cloudy - 9.4 1010.8 0.0
23/07:00am NNE 5 6 - - - - 10 Partly cloudy - 8.9 1011.1 0.0
23/06:30am NE 2 3 - - - - 10 Cloudy - 8.6 1011.1 0.0
23/06:00am NE 2 4 - - - - 10 Mostly cloudy - 8.5 1010.7 0.0
23/05:30am CALM 0 0 - - - - 10 Partly cloudy - 8.3 1010.6 0.0
23/05:00am NE 4 5 - - - - 10 Cloudy - 8.3 1011.0 0.0
23/04:30am ENE 4 4 - - - - 10 Cloudy - 8.5 1010.8 0.0
23/04:00am NW 3 5 - - - - 10 Cloudy - 6.7 1010.8 0.0
23/03:30am CALM 0 0 - - - - 10 Partly cloudy - 7.0 1011.4 0.0
23/03:00am CALM 0 0 - - - - 10 Mostly clear - 7.6 1011.8 0.0
23/02:30am CALM 0 0 - - - - 10 Partly cloudy - 8.5 1012.0 0.0
23/02:00am CALM 0 0 - - - - 10 Cloudy - 9.4 1012.2 0.0
23/01:30am NNE 4 5 - - - - 10 Cloudy - 9.6 1012.8 0.0
23/01:00am NNE 3 6 - - - - 10 Cloudy - 9.4 1013.4 0.0
23/12:30am CALM 0 0 - - - - 10 Cloudy - 9.4 1013.8 0.0
23/12:00am CALM 0 0 - - - - 10 Cloudy - 9.3 1014.3 0.0
 
Date/Time
EDT
Wind Sea
Height
m
Swell Vis
km
Cloud Weather Temp
°C
Press
MSL
hPa
Rain since
9am
mm
Dir  Spd
kts
Gust
kts
Height
m
Period
s
Dir
22/11:30pm CALM 0 0 - - - - 10 Cloudy - 9.0 1014.4 0.0
22/11:00pm CALM 0 0 - - - - 10 Partly cloudy - 9.5 1014.4 0.0
22/10:30pm E 4 4 - - - - 10 - - 9.4 1014.6 0.0
22/10:00pm SE 6 7 - - - - 10 Partly cloudy - 10.1 1014.9 0.0
22/09:30pm SSE 5 7 - - - - 10 Cloudy - 10.8 1015.1 0.0
22/09:00pm S 6 8 - - - - 10 Mostly cloudy - 10.7 1015.1 0.0
22/08:30pm S 6 8 - - - - 10 Partly cloudy - 10.4 1014.9 0.0
22/08:00pm SSW 7 9 - - - - 10 Cloudy - 11.0 1014.9 0.0
22/07:30pm SSW 8 11 - - - - 10 Cloudy - 12.7 1014.7 0.0
22/07:00pm SW 6 8 - - - - 10 Partly cloudy - 13.0 1015.0 0.0
22/06:30pm SSW 7 9 - - - - 10 - - 13.3 1014.7 0.0
22/06:00pm SSW 9 13 - - - - 10 - - 14.8 1014.5 0.0
22/05:30pm SSW 9 11 - - - - 10 - - 15.4 1014.6 0.0
22/05:00pm SSW 9 12 - - - - 10 - - 15.7 1014.6 0.0
22/04:30pm SSW 12 14 - - - - 10 - - 16.6 1015.0 0.0
22/04:00pm SSW 11 15 - - - - 10 - - 16.5 1015.2 0.0
22/03:30pm SW 11 14 - - - - 10 - - 16.5 1015.7 0.0
22/03:00pm SSW 12 20 - - - - 10 - - 16.6 1015.8 0.0
22/02:30pm SW 10 16 - - - - 10 Partly cloudy - 17.7 1015.8 0.0
22/02:00pm SSW 10 14 - - - - 10 Partly cloudy - 16.7 1015.8 0.0
22/01:30pm SW 12 17 - - - - 10 - - 16.6 1015.8 0.0
22/01:00pm SW 11 15 - - - - 10 - - 16.8 1016.0 0.0
22/12:30pm SW 9 14 - - - - 10 - - 16.0 1016.4 0.0
22/12:00pm WSW 10 16 - - - - 10 Mostly clear - 16.3 1016.6 0.0
22/11:30am S 7 11 - - - - 10 Cloudy - 15.4 1016.9 0.0
22/11:00am SSE 8 11 - - - - 10 Partly cloudy - 14.7 1017.1 0.0
22/10:30am SSE 8 11 - - - - 10 Cloudy - 13.4 1017.3 0.0
22/10:00am SSE 7 11 - - - - 10 Cloudy - 13.5 1017.3 0.0
22/09:30am SSE 7 9 - - - - 10 Partly cloudy - 11.5 1017.6 0.0
22/09:00am SSE 7 11 - - - - 10 - - 11.3 1017.5 0.0
22/08:36am SE 8 10 - - - - 10 Partly cloudy - 10.6 1017.5 0.0
22/08:30am SE 8 11 - - - - 10 Partly cloudy - 10.8 1017.4 0.0
22/08:04am SSE 7 10 - - - - 10 Partly cloudy - 10.0 1017.3 0.0
22/08:00am SSE 7 9 - - - - 10 Partly cloudy - 10.1 1017.2 0.0
22/07:30am CALM 0 0 - - - - 10 - - 8.3 1017.1 0.0
22/07:20am CALM 0 0 - - - - 10 Partly cloudy - 7.1 1017.1 0.0
22/07:10am CALM 0 0 - - - - 10 Partly cloudy - 6.9 1017.0 0.0
22/07:00am CALM 0 0 - - - - 4 Partly cloudy - 6.8 1016.9 0.0
22/06:30am ESE 5 6 - - - - 0.2 Cloudy - 7.0 1016.8 0.0
22/06:02am E 5 6 - - - - 4 Partly cloudy - 6.9 1016.6 0.0
22/06:00am E 5 6 - - - - 10 Cloudy - 6.7 1016.5 0.0
22/05:41am E 4 6 - - - - 10 Partly cloudy - 5.5 1016.3 0.0
22/05:38am E 3 4 - - - - 10 Partly cloudy - 5.6 1016.3 0.0
22/05:30am SE 4 4 - - - - 10 Partly cloudy - 6.6 1016.3 0.0
22/05:18am CALM 0 0 - - - - 4 - - 5.4 1016.6 0.0
22/05:00am SE 1 3 - - - - 10 - - 6.0 1016.4 0.0
22/04:30am SE 5 5 - - - - 10 - - 7.0 1016.3 0.0

Other formats

Comma delimited format used in spreadsheet applications
http://www.bom.gov.au/fwo/IDT60701/IDT60701.94956.axf

JavaScript Object Notation format (JSON) in row-major order
http://www.bom.gov.au/fwo/IDT60701/IDT60701.94956.json

Data quality

Most of these data are generated automatically and are frequently updated. Quality checks on data are not normally performed. It is possible for incorrect values to appear. Refer to information at About Latest Weather Observations and please check the disclaimer before using these data.